createdAt,value
2022-07-27T00:00:05.949Z,17.1
2022-07-27T00:02:03.291Z,17.2
2022-07-27T00:04:05.167Z,17.4
2022-07-27T00:06:01.626Z,17.7
2022-07-27T00:08:03.330Z,17.7
2022-07-27T00:10:05.526Z,18
2022-07-27T00:12:03.244Z,17.8
2022-07-27T00:14:05.514Z,17.8
2022-07-27T00:16:01.875Z,17.7
2022-07-27T00:18:05.607Z,17.8
2022-07-27T00:20:05.608Z,17.7
2022-07-27T00:22:02.899Z,17.8
2022-07-27T00:24:04.254Z,17.8
2022-07-27T00:26:02.942Z,18.1
2022-07-27T00:28:03.200Z,17.9
2022-07-27T00:30:01.619Z,17.9
2022-07-27T00:32:09.571Z,17.8
2022-07-27T00:34:03.005Z,17.7
2022-07-27T00:36:01.291Z,17.7
2022-07-27T00:38:05.060Z,17.3
2022-07-27T00:40:01.193Z,17
2022-07-27T00:42:10.105Z,17.1
2022-07-27T00:44:06.015Z,17.1
2022-07-27T00:46:04.623Z,17.3
2022-07-27T00:48:02.885Z,17
2022-07-27T00:50:04.195Z,17.1
2022-07-27T00:52:01.949Z,17.3
2022-07-27T00:54:04.591Z,17.5
2022-07-27T00:56:05.659Z,17.3
2022-07-27T00:58:04.578Z,17.1
2022-07-27T01:00:03.258Z,17.1
2022-07-27T01:02:05.576Z,17
2022-07-27T01:04:04.874Z,16.8
2022-07-27T01:08:03.712Z,16.6
2022-07-27T01:10:01.948Z,16.6
2022-07-27T01:12:05.076Z,16.5
2022-07-27T01:14:06.027Z,16.5
2022-07-27T01:16:05.029Z,16.5
2022-07-27T01:18:03.303Z,16.4
2022-07-27T01:20:05.561Z,16.5
2022-07-27T01:22:03.310Z,16.5
2022-07-27T01:24:03.688Z,16.4
2022-07-27T01:26:05.485Z,16.4
2022-07-27T01:28:04.630Z,16.4
2022-07-27T01:32:03.887Z,16.4
2022-07-27T01:34:01.906Z,16.4
2022-07-27T01:36:04.316Z,16.6
2022-07-27T01:38:02.941Z,16.7
2022-07-27T01:40:06.244Z,16.7
2022-07-27T01:42:05.463Z,16.7
2022-07-27T01:44:05.091Z,16.9
2022-07-27T01:46:01.656Z,17
2022-07-27T01:48:05.500Z,17
2022-07-27T01:50:05.294Z,17
2022-07-27T01:52:01.575Z,16.9
2022-07-27T01:54:02.811Z,16.9
2022-07-27T01:56:05.619Z,17.1
2022-07-27T01:58:05.871Z,17
2022-07-27T02:00:05.276Z,17.1
2022-07-27T02:02:01.468Z,17
2022-07-27T02:04:04.268Z,17.1
2022-07-27T02:06:05.512Z,17
2022-07-27T02:08:04.164Z,16.8
2022-07-27T02:10:05.348Z,16.9
2022-07-27T02:12:05.514Z,16.9
2022-07-27T02:14:06.037Z,16.9
2022-07-27T02:16:01.650Z,16.8
2022-07-27T02:18:04.603Z,16.8
2022-07-27T02:20:02.865Z,16.9
2022-07-27T02:22:02.580Z,17
2022-07-27T02:24:04.969Z,16.9
2022-07-27T02:26:05.128Z,16.9
2022-07-27T02:28:03.766Z,16.8
2022-07-27T02:30:03.815Z,16.7
2022-07-27T02:32:05.049Z,16.7
2022-07-27T02:34:01.485Z,16.7
2022-07-27T02:36:05.496Z,16.7
2022-07-27T02:38:03.771Z,16.7
2022-07-27T02:40:01.405Z,16.7
2022-07-27T02:42:05.137Z,16.8
2022-07-27T02:44:05.895Z,16.8
2022-07-27T02:46:01.958Z,16.9
2022-07-27T02:48:04.975Z,16.9
2022-07-27T02:50:02.042Z,17
2022-07-27T02:52:01.160Z,17
2022-07-27T02:54:05.093Z,17.1
2022-07-27T02:56:01.521Z,17.1
2022-07-27T02:58:02.972Z,17.1
2022-07-27T03:00:04.905Z,17.1
2022-07-27T03:02:01.590Z,17.1
2022-07-27T03:04:01.626Z,17
2022-07-27T03:06:05.187Z,17
2022-07-27T03:08:05.703Z,17.3
2022-07-27T03:10:03.201Z,17.3
2022-07-27T03:14:04.179Z,16.9
2022-07-27T03:16:01.588Z,16.9
2022-07-27T03:18:05.754Z,16.9
2022-07-27T03:20:03.856Z,17
2022-07-27T03:22:01.617Z,17.1
2022-07-27T03:24:02.959Z,17.1
2022-07-27T03:26:05.544Z,17
2022-07-27T03:28:04.134Z,16.7
2022-07-27T03:30:01.905Z,16.9
2022-07-27T03:32:06.263Z,16.9
2022-07-27T03:34:02.884Z,16.9
2022-07-27T03:36:03.707Z,17
2022-07-27T03:38:01.573Z,17
2022-07-27T03:40:02.939Z,17.1
2022-07-27T03:42:04.143Z,17
2022-07-27T03:44:04.508Z,17.1
2022-07-27T03:46:03.283Z,17.1
2022-07-27T03:48:01.694Z,16.9
2022-07-27T03:50:05.218Z,17
2022-07-27T03:52:02.911Z,16.8
2022-07-27T03:56:02.597Z,16.5
2022-07-27T03:58:01.490Z,16.4
2022-07-27T04:00:01.710Z,16.4
2022-07-27T04:02:04.691Z,16.3
2022-07-27T04:04:01.560Z,16.6
2022-07-27T04:06:05.975Z,16.7
2022-07-27T04:08:01.253Z,16.7
2022-07-27T04:10:07.696Z,16.8
2022-07-27T04:12:01.352Z,16.8
2022-07-27T04:14:03.269Z,16.8
2022-07-27T04:16:05.587Z,16.8
2022-07-27T04:18:03.595Z,16.8
2022-07-27T04:20:06.209Z,16.9
2022-07-27T04:22:01.320Z,16.9
2022-07-27T04:24:01.538Z,17
2022-07-27T04:26:05.253Z,17
2022-07-27T04:28:01.533Z,16.8
2022-07-27T04:30:09.364Z,16.7
2022-07-27T04:32:01.193Z,16.7
2022-07-27T04:34:04.541Z,17.2
2022-07-27T04:36:04.220Z,17.3
2022-07-27T04:38:06.021Z,17.3
2022-07-27T04:40:02.767Z,17.4
2022-07-27T04:42:04.260Z,17.3
2022-07-27T04:44:03.218Z,17.4
2022-07-27T04:46:05.882Z,17.3
2022-07-27T04:48:03.303Z,17.4
2022-07-27T04:50:04.745Z,17.4
2022-07-27T04:52:00.875Z,17.1
2022-07-27T04:54:06.150Z,17
2022-07-27T04:56:05.620Z,17.1
2022-07-27T04:58:05.501Z,17
2022-07-27T05:00:06.619Z,17.1
2022-07-27T05:02:05.452Z,17.1
2022-07-27T05:04:01.666Z,17.1
2022-07-27T05:06:03.822Z,17.1
2022-07-27T05:08:01.961Z,17.2
2022-07-27T05:10:05.611Z,17.2
2022-07-27T05:12:00.781Z,17.3
2022-07-27T05:14:04.579Z,17.2
2022-07-27T05:16:04.408Z,17.2
2022-07-27T05:18:04.257Z,17.4
2022-07-27T05:20:04.782Z,17.3
2022-07-27T05:22:01.197Z,17.3
2022-07-27T05:24:09.260Z,17.6
2022-07-27T05:26:04.817Z,17.8
2022-07-27T05:28:05.604Z,18.1
2022-07-27T05:30:04.492Z,18.2
2022-07-27T05:32:05.107Z,18.5
2022-07-27T05:34:05.615Z,18.8
2022-07-27T05:36:07.644Z,20.8
2022-07-27T05:38:05.705Z,21.4
2022-07-27T05:40:01.582Z,21.9
2022-07-27T05:42:03.717Z,22.5
2022-07-27T05:44:02.995Z,23.1
2022-07-27T05:46:06.402Z,22.7
2022-07-27T05:48:03.792Z,21.3
2022-07-27T05:50:05.921Z,19.3
2022-07-27T05:52:04.643Z,19.4
2022-07-27T05:54:01.905Z,19.3
2022-07-27T05:56:01.964Z,19.3
2022-07-27T06:00:05.074Z,20.8
2022-07-27T06:02:06.181Z,20.1
2022-07-27T06:04:06.278Z,19.4
2022-07-27T06:06:03.441Z,19.4
2022-07-27T06:08:01.605Z,19.4
2022-07-27T06:10:05.788Z,19.4
2022-07-27T06:12:03.217Z,19.6
2022-07-27T06:14:03.182Z,19.8
2022-07-27T06:16:05.572Z,19.7
2022-07-27T06:18:05.319Z,19.7
2022-07-27T06:20:05.762Z,19.5
2022-07-27T06:22:05.818Z,19.3
2022-07-27T06:24:03.935Z,19.3
2022-07-27T06:26:05.002Z,19.6
2022-07-27T06:28:04.145Z,19.7
2022-07-27T06:30:05.527Z,19.9
2022-07-27T06:32:04.798Z,19.9
2022-07-27T06:34:02.065Z,20
2022-07-27T06:36:04.562Z,20
2022-07-27T06:38:04.789Z,20
2022-07-27T06:40:04.182Z,19.9
2022-07-27T06:42:03.213Z,20.1
2022-07-27T06:44:02.970Z,20.4
2022-07-27T06:46:05.082Z,20.3
2022-07-27T06:48:00.890Z,20.6
2022-07-27T06:50:04.391Z,20.6
2022-07-27T06:52:03.854Z,20.6
2022-07-27T06:54:03.895Z,20.5
2022-07-27T06:58:04.216Z,20.9
2022-07-27T07:00:05.287Z,21.2
2022-07-27T07:04:03.115Z,21.6
2022-07-27T07:06:01.539Z,21.4
2022-07-27T07:08:04.801Z,21.2
2022-07-27T07:10:01.213Z,20.9
2022-07-27T07:12:05.549Z,21.2
2022-07-27T07:14:01.214Z,21.3
2022-07-27T07:16:06.090Z,21.3
2022-07-27T07:18:04.023Z,21.5
2022-07-27T07:20:04.341Z,21.4
2022-07-27T07:22:05.595Z,21.7
2022-07-27T07:24:03.823Z,21.9
2022-07-27T07:26:03.678Z,21.8
2022-07-27T07:28:01.661Z,21.5
2022-07-27T07:30:01.555Z,22.3
2022-07-27T07:32:05.889Z,23.4
2022-07-27T07:34:04.178Z,23.3
2022-07-27T07:36:08.878Z,23.5
2022-07-27T07:38:03.787Z,23.5
2022-07-27T07:40:25.104Z,23.6
2022-07-27T07:42:03.358Z,23.7
2022-07-27T07:44:03.129Z,22.6
2022-07-27T07:46:05.208Z,23.7
2022-07-27T07:48:05.692Z,24.1
2022-07-27T07:50:04.612Z,23.9
2022-07-27T07:52:04.799Z,23.8
2022-07-27T07:54:04.714Z,23.5
2022-07-27T07:56:05.223Z,23.2
2022-07-27T07:58:03.004Z,23.5
2022-07-27T08:00:06.272Z,23.2
2022-07-27T08:02:04.306Z,23.1
2022-07-27T08:04:05.602Z,23.9
2022-07-27T08:06:04.189Z,23.9
2022-07-27T08:08:04.286Z,24
2022-07-27T08:10:03.029Z,23.9
2022-07-27T08:12:05.101Z,24.1
2022-07-27T08:14:01.233Z,24.2
2022-07-27T08:16:05.511Z,24.1
2022-07-27T08:18:05.780Z,24.1
2022-07-27T08:20:04.578Z,24.3
2022-07-27T08:22:02.819Z,24.4
2022-07-27T08:24:05.221Z,24.5
2022-07-27T08:26:08.082Z,24.4
2022-07-27T08:28:03.688Z,24.5
2022-07-27T08:30:04.407Z,24.6
2022-07-27T08:32:06.317Z,24.7
2022-07-27T08:34:05.162Z,24.8
2022-07-27T08:36:06.014Z,24.3
2022-07-27T08:38:03.006Z,24.5
2022-07-27T08:42:04.720Z,24.8
2022-07-27T08:44:05.703Z,24.8
2022-07-27T08:46:05.815Z,25
2022-07-27T08:48:03.029Z,25.2
2022-07-27T08:50:04.176Z,25.2
2022-07-27T08:52:05.599Z,25.2
2022-07-27T08:54:02.908Z,25.3
2022-07-27T08:56:06.033Z,25.4
2022-07-27T08:58:05.047Z,25.4
2022-07-27T09:00:05.646Z,25.3
2022-07-27T09:02:03.247Z,25.2
2022-07-27T09:04:04.600Z,25.3
2022-07-27T09:06:04.775Z,25.3
2022-07-27T09:08:04.032Z,25.5
2022-07-27T09:10:01.623Z,25.5
2022-07-27T09:12:02.083Z,25.6
2022-07-27T09:14:04.657Z,25.7
2022-07-27T09:16:17.878Z,25.9
2022-07-27T09:18:04.727Z,25.9
2022-07-27T09:20:03.910Z,25.7
2022-07-27T09:22:05.540Z,25.6
2022-07-27T09:24:01.527Z,25.6
2022-07-27T09:26:09.236Z,25.7
2022-07-27T09:28:04.936Z,25.7
2022-07-27T09:30:03.742Z,25.7
2022-07-27T09:32:03.209Z,25.7
2022-07-27T09:34:04.690Z,25.8
2022-07-27T09:36:05.677Z,25.6
2022-07-27T09:38:01.633Z,25.5
2022-07-27T09:40:05.211Z,25.5
2022-07-27T09:42:05.098Z,25.4
2022-07-27T09:44:30.384Z,25.4
2022-07-27T09:46:05.709Z,25.4
2022-07-27T09:48:06.781Z,25.5
2022-07-27T09:50:05.156Z,25.7
2022-07-27T09:52:04.682Z,26
2022-07-27T09:54:03.450Z,26
2022-07-27T09:56:04.306Z,26
2022-07-27T09:58:04.387Z,26.1
2022-07-27T10:00:05.896Z,26
2022-07-27T10:02:04.886Z,25.9
2022-07-27T10:04:05.699Z,25.7
2022-07-27T10:06:02.012Z,25.7
2022-07-27T10:08:05.285Z,25.5
2022-07-27T10:10:03.827Z,25.5
2022-07-27T10:12:01.294Z,25.7
2022-07-27T10:14:01.664Z,26
2022-07-27T10:16:03.619Z,26.3
2022-07-27T10:18:07.254Z,26.4
2022-07-27T10:20:04.830Z,26.4
2022-07-27T10:22:06.495Z,26.3
2022-07-27T10:24:06.828Z,26
2022-07-27T10:26:04.749Z,26
2022-07-27T10:28:05.688Z,26
2022-07-27T10:30:04.277Z,26
2022-07-27T10:32:03.100Z,25.6
2022-07-27T10:34:03.886Z,25.6
2022-07-27T10:36:01.611Z,25.8
2022-07-27T10:38:01.386Z,25.9
2022-07-27T10:40:01.269Z,26
2022-07-27T10:42:05.615Z,26.1
2022-07-27T10:44:04.763Z,26.1
2022-07-27T10:46:05.479Z,26.2
2022-07-27T10:48:01.592Z,26.2
2022-07-27T10:50:03.420Z,26.2
2022-07-27T10:52:02.923Z,26
2022-07-27T10:54:12.605Z,26.1
2022-07-27T10:56:01.278Z,26.3
2022-07-27T10:58:05.696Z,26.3
2022-07-27T11:00:10.973Z,26.1
2022-07-27T11:02:05.091Z,25.9
2022-07-27T11:04:04.773Z,25.8
2022-07-27T11:06:26.426Z,25.7
2022-07-27T11:08:35.121Z,25.8
2022-07-27T11:10:06.142Z,25.9
2022-07-27T11:12:06.492Z,25.7
2022-07-27T11:14:02.935Z,25.7
2022-07-27T11:16:24.133Z,25.7
2022-07-27T11:18:05.080Z,25.7
2022-07-27T11:20:06.088Z,25.7
2022-07-27T11:22:09.066Z,25.7
2022-07-27T11:24:03.365Z,25.9
2022-07-27T11:26:05.740Z,26
2022-07-27T11:28:04.407Z,25.9
2022-07-27T11:30:02.210Z,26
2022-07-27T11:32:04.881Z,25.9
2022-07-27T11:34:05.196Z,25.9
2022-07-27T11:36:01.839Z,26
2022-07-27T11:38:03.302Z,26.2
2022-07-27T11:40:04.215Z,26.1
2022-07-27T11:42:09.130Z,26.1
2022-07-27T11:44:06.526Z,26.3
2022-07-27T11:46:02.037Z,26.5
2022-07-27T11:48:05.511Z,26.6
2022-07-27T11:50:04.782Z,26.6
2022-07-27T11:52:05.690Z,26.7
2022-07-27T11:54:01.973Z,26.6
2022-07-27T11:56:05.281Z,26.4
2022-07-27T11:58:06.228Z,26.2
2022-07-27T12:00:04.755Z,26.2
2022-07-27T12:02:04.344Z,26.1
2022-07-27T12:04:03.374Z,26.2
2022-07-27T12:06:03.140Z,26.4
2022-07-27T12:08:05.730Z,26.4
2022-07-27T12:10:02.283Z,26.6
2022-07-27T12:12:05.644Z,26.6
2022-07-27T12:14:02.158Z,26.6
2022-07-27T12:16:03.843Z,26.7
2022-07-27T12:18:05.350Z,26.7
2022-07-27T12:20:05.847Z,26.5
2022-07-27T12:22:05.216Z,26.5
2022-07-27T12:24:06.508Z,26.5
2022-07-27T12:26:05.351Z,26.6
2022-07-27T12:28:05.813Z,26.6
2022-07-27T12:30:04.274Z,26.7
2022-07-27T12:32:03.449Z,26.7
2022-07-27T12:34:06.756Z,26.6
2022-07-27T12:36:05.291Z,26.5
2022-07-27T12:38:03.079Z,26.4
2022-07-27T12:40:02.174Z,26.4
2022-07-27T12:42:03.322Z,26.4
2022-07-27T12:44:04.479Z,26.4
2022-07-27T12:46:05.204Z,26.5
2022-07-27T12:48:03.227Z,26.5
2022-07-27T12:50:02.098Z,26.4
2022-07-27T12:52:05.266Z,26.4
2022-07-27T12:54:03.716Z,26.3
2022-07-27T12:56:05.286Z,26.3
2022-07-27T13:00:02.812Z,26.4
2022-07-27T13:02:05.905Z,26.5
2022-07-27T13:04:01.707Z,26.5
2022-07-27T13:06:01.689Z,26.5
2022-07-27T13:08:02.954Z,26.5
2022-07-27T13:10:04.675Z,26.6
2022-07-27T13:12:03.071Z,26.6
2022-07-27T13:14:05.651Z,26.5
2022-07-27T13:16:04.350Z,26.5
2022-07-27T13:18:04.355Z,26.7
2022-07-27T13:20:04.517Z,26.6
2022-07-27T13:22:04.315Z,26.4
2022-07-27T13:24:05.946Z,26.4
2022-07-27T13:26:04.432Z,26.5
2022-07-27T13:28:05.767Z,26.6
2022-07-27T13:30:03.180Z,26.8
2022-07-27T13:32:05.313Z,26.8
2022-07-27T13:34:01.659Z,26.4
2022-07-27T13:36:04.499Z,26.6
2022-07-27T13:38:04.420Z,26.7
2022-07-27T13:40:05.800Z,26.8
2022-07-27T13:42:04.366Z,26.8
2022-07-27T13:44:01.655Z,26.7
2022-07-27T13:46:06.156Z,26.6
2022-07-27T13:48:05.237Z,26.7
2022-07-27T13:50:05.726Z,26.7
2022-07-27T13:52:02.005Z,26.7
2022-07-27T13:54:05.736Z,26.6
2022-07-27T13:56:05.341Z,26.6
2022-07-27T13:58:03.550Z,26.4
2022-07-27T14:00:00.369Z,26.4
2022-07-27T14:02:04.939Z,26.3
2022-07-27T14:04:05.891Z,26.2
2022-07-27T14:06:05.265Z,26.3
2022-07-27T14:08:04.712Z,26.3
2022-07-27T14:10:05.304Z,26.4
2022-07-27T14:12:06.596Z,26.4
2022-07-27T14:14:00.934Z,26.3
2022-07-27T14:16:03.351Z,26.3
2022-07-27T14:18:05.721Z,26.3
2022-07-27T14:20:03.110Z,26.3
2022-07-27T14:22:03.101Z,26.1
2022-07-27T14:24:04.449Z,26.2
2022-07-27T14:26:02.385Z,26.3
2022-07-27T14:28:06.430Z,26.5
2022-07-27T14:30:03.303Z,26.6
2022-07-27T14:32:06.472Z,26.7
2022-07-27T14:34:01.053Z,26.6
2022-07-27T14:36:03.187Z,26.6
2022-07-27T14:38:03.453Z,26.7
2022-07-27T14:40:01.686Z,26.7
2022-07-27T14:42:04.320Z,26.8
2022-07-27T14:44:04.886Z,26.7
2022-07-27T14:46:05.534Z,26.6
2022-07-27T14:48:06.138Z,26.6
2022-07-27T14:50:04.898Z,26.6
2022-07-27T14:52:03.987Z,26.4
2022-07-27T14:54:05.271Z,26.3
2022-07-27T14:56:04.045Z,26.2
2022-07-27T14:58:06.481Z,26.2
2022-07-27T15:00:03.125Z,26.3
2022-07-27T15:02:04.483Z,26.4
2022-07-27T15:04:05.337Z,26.5
2022-07-27T15:06:07.107Z,26.4
2022-07-27T15:08:04.336Z,26.4
2022-07-27T15:10:03.451Z,26.4
2022-07-27T15:12:03.522Z,26.6
2022-07-27T15:14:03.273Z,26.6
2022-07-27T15:16:05.645Z,26.6
2022-07-27T15:18:03.490Z,26.4
2022-07-27T15:20:01.896Z,26.5
2022-07-27T15:22:04.000Z,26.6
2022-07-27T15:24:04.932Z,26.7
2022-07-27T15:26:03.347Z,26.6
2022-07-27T15:28:06.155Z,26.5
2022-07-27T15:30:06.093Z,26.3
2022-07-27T15:32:04.519Z,26.4
2022-07-27T15:34:03.492Z,26.3
2022-07-27T15:36:01.489Z,26.2
2022-07-27T15:38:02.127Z,25.8
2022-07-27T15:40:01.688Z,25.5
2022-07-27T15:42:01.524Z,25.7
2022-07-27T15:44:03.108Z,25.3
2022-07-27T15:46:04.461Z,24.9
2022-07-27T15:50:04.369Z,25.2
2022-07-27T15:52:04.740Z,25.5
2022-07-27T15:54:05.718Z,25.6
2022-07-27T15:56:04.079Z,25.9
2022-07-27T15:58:03.136Z,25.6
2022-07-27T16:00:03.680Z,25.6
2022-07-27T16:02:06.052Z,25.9
2022-07-27T16:04:03.500Z,26.1
2022-07-27T16:06:05.023Z,26.4
2022-07-27T16:08:04.898Z,26.2
2022-07-27T16:10:06.042Z,25.4
2022-07-27T16:12:03.442Z,25.1
2022-07-27T16:14:05.458Z,25.2
2022-07-27T16:16:04.072Z,26
2022-07-27T16:18:01.314Z,25.8
2022-07-27T16:20:05.272Z,25.7
2022-07-27T16:22:04.378Z,25.9
2022-07-27T16:24:05.840Z,26.3
2022-07-27T16:26:06.603Z,26.4
2022-07-27T16:28:02.733Z,26.4
2022-07-27T16:30:03.592Z,26.5
2022-07-27T16:32:04.104Z,26.4
2022-07-27T16:34:06.159Z,26.1
2022-07-27T16:36:03.228Z,26.2
2022-07-27T16:38:03.953Z,25.3
2022-07-27T16:40:04.630Z,25.6
2022-07-27T16:42:05.917Z,25.5
2022-07-27T16:44:05.428Z,25.5
2022-07-27T16:46:01.375Z,25.9
2022-07-27T16:48:04.764Z,25.8
2022-07-27T16:50:04.693Z,25.5
2022-07-27T16:52:06.169Z,25.4
2022-07-27T16:54:03.125Z,25.5
2022-07-27T16:56:04.220Z,25.7
2022-07-27T16:58:06.286Z,25.9
2022-07-27T17:00:02.513Z,25.9
2022-07-27T17:02:05.370Z,26.1
2022-07-27T17:04:04.833Z,26.1
2022-07-27T17:06:05.874Z,26
2022-07-27T17:08:04.837Z,26.1
2022-07-27T17:10:02.178Z,25.9
2022-07-27T17:12:04.369Z,25.8
2022-07-27T17:14:03.532Z,25.6
2022-07-27T17:16:04.425Z,25.2
2022-07-27T17:18:04.108Z,25.2
2022-07-27T17:20:06.208Z,25.5
2022-07-27T17:22:04.016Z,24.7
2022-07-27T17:24:06.001Z,24.4
2022-07-27T17:26:01.503Z,24.1
2022-07-27T17:28:02.200Z,24.2
2022-07-27T17:30:01.478Z,24.4
2022-07-27T17:32:03.210Z,24.3
2022-07-27T17:34:03.083Z,23.9
2022-07-27T17:36:04.098Z,24
2022-07-27T17:38:06.826Z,24
2022-07-27T17:40:05.415Z,24
2022-07-27T17:42:05.350Z,24.1
2022-07-27T17:44:05.368Z,24.4
2022-07-27T17:46:03.540Z,24.5
2022-07-27T17:48:03.228Z,24.4
2022-07-27T17:50:06.123Z,24.4
2022-07-27T17:52:05.294Z,24.4
2022-07-27T17:54:04.666Z,24.3
2022-07-27T17:56:03.570Z,24.1
2022-07-27T17:58:01.740Z,24.2
2022-07-27T18:00:02.321Z,24.2
2022-07-27T18:02:05.284Z,23.9
2022-07-27T18:04:06.142Z,23.9
2022-07-27T18:06:05.302Z,23.7
2022-07-27T18:08:03.547Z,23.6
2022-07-27T18:10:03.553Z,23.2
2022-07-27T18:12:03.611Z,23.2
2022-07-27T18:14:02.269Z,23.2
2022-07-27T18:16:04.859Z,23.1
2022-07-27T18:18:06.058Z,23
2022-07-27T18:20:04.102Z,22.9
2022-07-27T18:22:02.590Z,23
2022-07-27T18:24:06.213Z,22.8
2022-07-27T18:26:02.131Z,22.7
2022-07-27T18:28:03.194Z,22.6
2022-07-27T18:30:05.485Z,22.5
2022-07-27T18:32:06.222Z,22.4
2022-07-27T18:34:07.899Z,22.3
2022-07-27T18:36:02.164Z,22.2
2022-07-27T18:38:03.523Z,22.1
2022-07-27T18:40:03.674Z,22.1
2022-07-27T18:44:06.215Z,22
2022-07-27T18:46:04.013Z,22
2022-07-27T18:48:04.989Z,21.9
2022-07-27T18:50:05.072Z,21.8
2022-07-27T18:52:04.061Z,21.8
2022-07-27T18:54:06.379Z,21.8
2022-07-27T18:56:04.847Z,21.8
2022-07-27T18:58:04.941Z,21.8
2022-07-27T19:00:06.321Z,21.7
2022-07-27T19:02:04.688Z,21.6
2022-07-27T19:04:04.724Z,21.5
2022-07-27T19:06:03.495Z,21.5
2022-07-27T19:08:03.616Z,21.4
2022-07-27T19:10:04.560Z,21.4
2022-07-27T19:12:09.144Z,21.3
2022-07-27T19:14:06.169Z,21.3
2022-07-27T19:16:05.714Z,21.2
2022-07-27T19:18:04.638Z,21.2
2022-07-27T19:20:06.133Z,21.2
2022-07-27T19:22:03.326Z,21
2022-07-27T19:24:04.943Z,20.9
2022-07-27T19:28:04.542Z,20.9
2022-07-27T19:30:03.259Z,20.8
2022-07-27T19:32:02.167Z,20.8
2022-07-27T19:34:05.893Z,20.9
2022-07-27T19:36:03.816Z,20.9
2022-07-27T19:38:04.623Z,21
2022-07-27T19:40:14.676Z,20.8
2022-07-27T19:42:04.880Z,20.8
2022-07-27T19:44:02.277Z,20.7
2022-07-27T19:46:03.135Z,20.6
2022-07-27T19:48:03.203Z,20.5
2022-07-27T19:50:06.156Z,20.5
2022-07-27T19:52:04.542Z,20.7
2022-07-27T19:54:06.209Z,20.8
2022-07-27T19:56:05.028Z,20.6
2022-07-27T19:58:05.044Z,20.6
2022-07-27T20:00:05.916Z,20.6
2022-07-27T20:02:02.861Z,20.5
2022-07-27T20:04:01.841Z,20.6
2022-07-27T20:06:04.163Z,20.5
2022-07-27T20:08:06.237Z,20.4
2022-07-27T20:10:05.209Z,20.3
2022-07-27T20:12:04.283Z,20.2
2022-07-27T20:14:05.131Z,20
2022-07-27T20:16:05.617Z,19.9
2022-07-27T20:18:05.367Z,20
2022-07-27T20:20:03.640Z,20
2022-07-27T20:22:04.852Z,20
2022-07-27T20:24:05.376Z,20
2022-07-27T20:26:03.459Z,19.9
2022-07-27T20:28:04.570Z,19.9
2022-07-27T20:30:03.594Z,19.9
2022-07-27T20:32:03.512Z,20.2
2022-07-27T20:34:02.538Z,20
2022-07-27T20:36:02.416Z,19.9
2022-07-27T20:38:04.978Z,19.8
2022-07-27T20:40:05.838Z,19.6
2022-07-27T20:42:05.963Z,19.6
2022-07-27T20:44:04.456Z,19.5
2022-07-27T20:46:06.538Z,19.2
2022-07-27T20:48:05.013Z,19.2
2022-07-27T20:50:06.271Z,19.2
2022-07-27T20:52:05.686Z,19.3
2022-07-27T20:54:05.586Z,19.4
2022-07-27T20:56:05.069Z,19.3
2022-07-27T20:58:04.516Z,19.2
2022-07-27T21:00:05.148Z,19.3
2022-07-27T21:02:05.545Z,19.2
2022-07-27T21:04:03.348Z,19
2022-07-27T21:08:02.710Z,18.9
2022-07-27T21:10:05.525Z,18.8
2022-07-27T21:12:03.656Z,18.8
2022-07-27T21:14:02.337Z,18.8
2022-07-27T21:16:02.241Z,18.7
2022-07-27T21:18:06.052Z,18.6
2022-07-27T21:20:04.506Z,18.7
2022-07-27T21:22:05.272Z,18.6
2022-07-27T21:24:02.610Z,18.6
2022-07-27T21:26:04.504Z,18.6
2022-07-27T21:28:03.596Z,18.5
2022-07-27T21:30:03.263Z,18.5
2022-07-27T21:32:02.168Z,18.4
2022-07-27T21:34:05.376Z,18.4
2022-07-27T21:36:02.771Z,18.4
2022-07-27T21:38:02.242Z,18.4
2022-07-27T21:40:03.626Z,18.5
2022-07-27T21:42:05.791Z,18.4
2022-07-27T21:44:02.304Z,18.4
2022-07-27T21:46:05.392Z,18.5
2022-07-27T21:48:03.922Z,18.3
2022-07-27T21:50:05.784Z,18.4
2022-07-27T21:52:06.207Z,18.2
2022-07-27T21:54:02.862Z,18.3
2022-07-27T21:56:02.242Z,18.3
2022-07-27T21:58:06.241Z,18.3
2022-07-27T22:00:07.076Z,18.4
2022-07-27T22:02:05.381Z,18.4
2022-07-27T22:04:02.405Z,18.2
2022-07-27T22:06:05.436Z,18.4
2022-07-27T22:08:04.448Z,18.2
2022-07-27T22:10:03.595Z,18.2
2022-07-27T22:12:05.348Z,18.3
2022-07-27T22:14:02.223Z,18.2
2022-07-27T22:16:02.341Z,18.3
2022-07-27T22:18:05.866Z,18.4
2022-07-27T22:20:06.028Z,18.4
2022-07-27T22:22:02.237Z,18.3
2022-07-27T22:24:02.251Z,18
2022-07-27T22:26:05.018Z,18.3
2022-07-27T22:28:02.258Z,18.2
2022-07-27T22:30:05.466Z,18.1
2022-07-27T22:32:04.545Z,18
2022-07-27T22:34:05.973Z,17.8
2022-07-27T22:36:04.735Z,17.9
2022-07-27T22:38:02.201Z,17.8
2022-07-27T22:40:04.486Z,17.8
2022-07-27T22:42:02.188Z,17.7
2022-07-27T22:44:05.033Z,17.6
2022-07-27T22:46:03.714Z,17.7
2022-07-27T22:48:06.099Z,17.6
2022-07-27T22:50:02.260Z,17.6
2022-07-27T22:52:02.212Z,17.6
2022-07-27T22:54:03.372Z,17.5
2022-07-27T22:56:03.447Z,17.5
2022-07-27T22:58:03.673Z,17.4
2022-07-27T23:00:02.554Z,17.6
2022-07-27T23:02:03.988Z,17.4
2022-07-27T23:04:05.710Z,17.4
2022-07-27T23:06:04.386Z,17.3
2022-07-27T23:08:01.834Z,17.3
2022-07-27T23:10:02.611Z,17.2
2022-07-27T23:12:04.272Z,17.2
2022-07-27T23:14:02.280Z,17.2
2022-07-27T23:16:05.987Z,17.2
2022-07-27T23:18:05.844Z,17
2022-07-27T23:20:06.311Z,17.1
2022-07-27T23:22:01.803Z,17.1
2022-07-27T23:24:05.857Z,17.1
2022-07-27T23:26:04.195Z,17.1
2022-07-27T23:28:01.962Z,17.1
2022-07-27T23:30:03.571Z,17
2022-07-27T23:32:05.401Z,17
2022-07-27T23:34:03.758Z,16.9
2022-07-27T23:36:01.967Z,16.8
2022-07-27T23:38:06.517Z,16.7
2022-07-27T23:40:05.295Z,16.7
2022-07-27T23:42:04.177Z,16.7
2022-07-27T23:44:04.178Z,16.8
2022-07-27T23:46:03.834Z,16.5
2022-07-27T23:50:03.295Z,16.6
2022-07-27T23:52:02.460Z,16.5
2022-07-27T23:54:04.809Z,16.9
2022-07-27T23:56:02.517Z,16.7
2022-07-27T23:58:05.623Z,16.5
